Alton, Maine
Current Conditions -  °F | °C
As of 2:53 AM on Saturday 25 Oct 2014 (Local Time) from KBGR Reporting Station
Overcast Overcast  
Wind Chill:   Ceiling: 2400
Heat Index:   Visibility: 10mi
Dew Point:   Wind: 6mph
Humidity: 93%   Direction: 310°NW
Pressure: 29.65"   Gusts: NA
Location:  45.0236°N, 68.7394°W
Report Text: KBGR 250653Z 31005KT 10SM BKN024 OVC050 07/06 A2965 RMK AO2 RAB0558E07 SLP040 P0000 T00670056
Loading
Personal Weather Stations






























Interactive Weather Map New forecast layout! Learn more

10-Day Weather Forecast

Advertisements
Track Severe Weather on mobile